createdAt,value
2022-12-29T00:01:51.083Z,4.94
2022-12-29T00:04:20.505Z,4.92
2022-12-29T00:06:49.521Z,4.90
2022-12-29T00:09:19.095Z,4.89
2022-12-29T00:11:56.717Z,4.90
2022-12-29T00:14:43.898Z,4.86
2022-12-29T00:17:13.985Z,4.86
2022-12-29T00:19:59.350Z,4.86
2022-12-29T00:22:45.824Z,4.83
2022-12-29T00:25:32.889Z,4.78
2022-12-29T00:28:18.217Z,4.79
2022-12-29T00:31:03.761Z,4.76
2022-12-29T00:33:52.490Z,4.80
2022-12-29T00:36:24.317Z,4.78
2022-12-29T00:39:18.646Z,4.76
2022-12-29T00:42:04.422Z,4.74
2022-12-29T00:44:32.661Z,4.71
2022-12-29T00:47:06.599Z,4.71
2022-12-29T00:49:36.309Z,4.70
2022-12-29T00:52:06.860Z,4.71
2022-12-29T00:54:41.960Z,4.72
2022-12-29T00:57:11.919Z,4.70
2022-12-29T00:59:40.671Z,4.69
2022-12-29T01:02:09.993Z,4.69
2022-12-29T01:04:40.127Z,4.68
2022-12-29T01:07:08.450Z,4.66
2022-12-29T01:09:53.869Z,4.66
2022-12-29T01:12:41.891Z,4.69
2022-12-29T01:15:15.273Z,4.67
2022-12-29T01:17:46.571Z,4.70
2022-12-29T01:20:16.461Z,4.70
2022-12-29T01:22:44.872Z,4.74
2022-12-29T01:25:13.378Z,4.77
2022-12-29T01:27:44.324Z,4.77
2022-12-29T01:30:13.559Z,4.72
2022-12-29T01:32:42.319Z,4.75
2022-12-29T01:35:12.453Z,4.72
2022-12-29T01:37:41.928Z,4.72
2022-12-29T01:40:11.266Z,4.70
2022-12-29T01:42:39.767Z,4.71
2022-12-29T01:45:12.300Z,4.67
2022-12-29T01:47:44.008Z,4.69
2022-12-29T01:50:17.797Z,4.69
2022-12-29T01:52:54.414Z,4.65
2022-12-29T01:55:23.198Z,4.64
2022-12-29T01:57:55.371Z,4.63
2022-12-29T02:00:23.765Z,4.63
2022-12-29T02:02:55.541Z,4.60
2022-12-29T02:05:31.311Z,4.59
2022-12-29T02:08:03.664Z,4.56
2022-12-29T02:10:35.329Z,4.54
2022-12-29T02:13:03.660Z,4.53
2022-12-29T02:15:40.302Z,4.52
2022-12-29T02:18:21.780Z,4.51
2022-12-29T02:21:18.398Z,4.55
2022-12-29T02:24:32.902Z,4.57
2022-12-29T02:27:24.335Z,4.58
2022-12-29T02:30:10.000Z,4.58
2022-12-29T02:32:48.777Z,4.55
2022-12-29T02:35:28.184Z,4.55
2022-12-29T02:38:05.858Z,4.53
2022-12-29T02:40:43.308Z,4.52
2022-12-29T02:43:22.105Z,4.50
2022-12-29T02:45:58.006Z,4.48
2022-12-29T02:48:34.297Z,4.48
2022-12-29T02:51:09.154Z,4.50
2022-12-29T02:53:57.063Z,4.50
2022-12-29T02:56:25.533Z,4.54
2022-12-29T02:58:53.901Z,4.50
2022-12-29T03:01:38.612Z,4.54
2022-12-29T03:04:26.308Z,4.61
2022-12-29T03:07:04.709Z,4.62
2022-12-29T03:09:39.398Z,4.65
2022-12-29T03:12:17.283Z,4.58
2022-12-29T03:15:15.311Z,4.57
2022-12-29T03:17:53.915Z,4.56
2022-12-29T03:20:31.014Z,4.62
2022-12-29T03:23:03.923Z,4.57
2022-12-29T03:25:35.756Z,4.57
2022-12-29T03:28:09.274Z,4.61
2022-12-29T03:30:40.256Z,4.59
2022-12-29T03:33:13.975Z,4.52
2022-12-29T03:35:48.816Z,4.50
2022-12-29T03:38:19.711Z,4.51
2022-12-29T03:40:57.701Z,4.56
2022-12-29T03:43:27.367Z,4.64
2022-12-29T03:45:56.073Z,4.72
2022-12-29T03:48:27.047Z,4.86
2022-12-29T03:50:59.348Z,4.92
2022-12-29T03:53:27.584Z,4.91
2022-12-29T03:55:57.085Z,4.93
2022-12-29T03:58:25.470Z,5.13
2022-12-29T04:01:00.759Z,5.24
2022-12-29T04:03:29.159Z,5.21
2022-12-29T04:05:58.856Z,5.09
2022-12-29T04:08:27.042Z,4.98
2022-12-29T04:10:57.964Z,4.89
2022-12-29T04:13:26.134Z,4.78
2022-12-29T04:15:54.527Z,4.75
2022-12-29T04:18:25.299Z,4.69
2022-12-29T04:21:03.829Z,4.64
2022-12-29T04:23:35.837Z,4.63
2022-12-29T04:26:07.580Z,4.59
2022-12-29T04:28:36.029Z,4.55
2022-12-29T04:31:04.823Z,4.59
2022-12-29T04:33:33.293Z,4.54
2022-12-29T04:36:01.469Z,4.51
2022-12-29T04:38:29.847Z,4.49
2022-12-29T04:41:01.525Z,4.49
2022-12-29T04:43:29.825Z,4.49
2022-12-29T04:45:58.219Z,4.50
2022-12-29T04:48:26.407Z,4.50
2022-12-29T04:50:54.635Z,4.52
2022-12-29T04:53:22.853Z,4.47
2022-12-29T04:55:52.426Z,4.44
2022-12-29T04:58:23.361Z,4.47
2022-12-29T05:00:52.509Z,4.51
2022-12-29T05:03:21.190Z,4.52
2022-12-29T05:05:49.525Z,4.49
2022-12-29T05:08:20.858Z,4.52
2022-12-29T05:10:52.613Z,4.52
2022-12-29T05:13:22.487Z,4.48
2022-12-29T05:15:53.115Z,4.47
2022-12-29T05:18:21.894Z,4.49
2022-12-29T05:20:50.587Z,4.49
2022-12-29T05:23:19.014Z,4.63
2022-12-29T05:25:47.561Z,4.66
2022-12-29T05:28:16.137Z,4.62
2022-12-29T05:30:49.991Z,4.60
2022-12-29T05:33:18.670Z,4.64
2022-12-29T05:35:47.276Z,4.67
2022-12-29T05:38:15.498Z,4.60
2022-12-29T05:40:43.721Z,4.51
2022-12-29T05:43:11.965Z,4.48
2022-12-29T05:45:40.370Z,4.40
2022-12-29T05:48:10.040Z,4.31
2022-12-29T05:50:39.481Z,4.28
2022-12-29T05:53:07.926Z,4.22
2022-12-29T05:55:36.574Z,4.21
2022-12-29T05:58:05.294Z,4.23
2022-12-29T06:00:33.933Z,4.22
2022-12-29T06:03:02.264Z,4.19
2022-12-29T06:05:32.272Z,4.17
2022-12-29T06:08:00.360Z,4.12
2022-12-29T06:10:28.676Z,4.09
2022-12-29T06:12:56.893Z,4.11
2022-12-29T06:15:25.084Z,4.12
2022-12-29T06:17:53.477Z,4.14
2022-12-29T06:20:21.663Z,4.13
2022-12-29T06:22:51.242Z,4.11
2022-12-29T06:25:19.981Z,4.10
2022-12-29T06:27:48.073Z,4.09
2022-12-29T06:30:17.243Z,4.12
2022-12-29T06:32:46.845Z,4.12
2022-12-29T06:35:15.080Z,4.12
2022-12-29T06:37:43.201Z,4.08
2022-12-29T06:40:14.308Z,4.08
2022-12-29T06:42:42.774Z,4.07
2022-12-29T06:45:11.808Z,4.09
2022-12-29T06:47:40.170Z,4.11
2022-12-29T06:50:08.942Z,4.11
2022-12-29T06:52:37.168Z,4.15
2022-12-29T06:55:06.001Z,4.14
2022-12-29T06:57:35.604Z,4.07
2022-12-29T07:00:04.321Z,4.01
2022-12-29T07:02:33.131Z,4.00
2022-12-29T07:05:01.445Z,4.02
2022-12-29T07:07:29.845Z,3.96
2022-12-29T07:10:00.601Z,3.92
2022-12-29T07:12:28.963Z,3.87
2022-12-29T07:14:58.491Z,3.85
2022-12-29T07:17:26.751Z,3.85
2022-12-29T07:19:54.930Z,3.92
2022-12-29T07:22:23.481Z,3.91
2022-12-29T07:24:51.872Z,3.94
2022-12-29T07:27:20.217Z,3.91
2022-12-29T07:29:48.629Z,3.89
2022-12-29T07:32:18.255Z,3.88
2022-12-29T07:34:48.564Z,3.89
2022-12-29T07:37:17.816Z,3.87
2022-12-29T07:39:46.217Z,3.90
2022-12-29T07:42:14.324Z,3.91
2022-12-29T07:44:42.429Z,3.86
2022-12-29T07:47:10.580Z,3.86
2022-12-29T07:49:40.251Z,3.82
2022-12-29T07:52:09.659Z,3.77
2022-12-29T07:54:37.919Z,3.80
2022-12-29T07:57:06.972Z,3.81
2022-12-29T07:59:35.200Z,3.78
2022-12-29T08:02:03.533Z,3.78
2022-12-29T08:04:32.024Z,3.77
2022-12-29T08:07:02.083Z,3.80
2022-12-29T08:09:30.461Z,3.77
2022-12-29T08:11:58.588Z,3.69
2022-12-29T08:14:26.871Z,3.71
2022-12-29T08:16:55.028Z,3.72
2022-12-29T08:19:25.518Z,3.72
2022-12-29T08:21:54.777Z,3.73
2022-12-29T08:24:24.587Z,3.76
2022-12-29T08:26:52.834Z,3.75
2022-12-29T08:29:22.543Z,3.75
2022-12-29T08:31:51.042Z,3.74
2022-12-29T08:34:19.170Z,3.72
2022-12-29T08:36:47.468Z,3.72
2022-12-29T08:39:15.767Z,3.73
2022-12-29T08:41:45.352Z,3.76
2022-12-29T08:45:17.443Z,3.73
2022-12-29T08:48:09.460Z,3.73
2022-12-29T08:50:44.553Z,3.73
2022-12-29T08:53:17.563Z,3.73
2022-12-29T08:55:47.756Z,3.72
2022-12-29T08:58:21.985Z,3.73
2022-12-29T09:00:57.435Z,3.76
2022-12-29T09:04:12.355Z,3.78
2022-12-29T09:06:27.842Z,3.77
2022-12-29T09:08:58.724Z,3.83
2022-12-29T09:11:28.793Z,3.80
2022-12-29T09:14:44.873Z,3.81
2022-12-29T09:20:48.647Z,3.75
2022-12-29T09:23:17.046Z,3.73
2022-12-29T09:25:45.764Z,3.67
2022-12-29T09:28:13.809Z,3.68
2022-12-29T09:30:46.895Z,3.71
2022-12-29T09:33:15.052Z,3.78
2022-12-29T09:35:44.630Z,3.87
2022-12-29T09:38:13.463Z,3.88
2022-12-29T09:40:42.606Z,3.88
2022-12-29T09:43:26.762Z,3.87
2022-12-29T09:46:05.506Z,3.89
2022-12-29T09:48:37.228Z,3.92
2022-12-29T09:51:11.295Z,3.93
2022-12-29T09:53:43.524Z,3.92
2022-12-29T09:56:17.499Z,3.94
2022-12-29T09:58:53.995Z,3.99
2022-12-29T10:01:32.596Z,4.00
2022-12-29T10:04:04.294Z,4.00
2022-12-29T10:07:03.717Z,4.00
2022-12-29T10:09:39.539Z,4.00
2022-12-29T10:12:23.586Z,4.00
2022-12-29T10:15:05.063Z,4.03
2022-12-29T10:17:45.640Z,4.07
2022-12-29T10:20:27.662Z,4.14
2022-12-29T10:23:14.492Z,4.21
2022-12-29T10:25:45.294Z,4.31
2022-12-29T10:28:21.604Z,4.38
2022-12-29T10:30:50.833Z,4.41
2022-12-29T10:33:25.575Z,4.65
2022-12-29T10:35:54.368Z,5.14
2022-12-29T10:38:31.107Z,5.42
2022-12-29T10:41:02.953Z,5.36
2022-12-29T10:43:33.592Z,5.16
2022-12-29T10:46:12.487Z,5.34
2022-12-29T10:48:48.938Z,5.60
2022-12-29T10:51:22.951Z,5.97
2022-12-29T10:53:58.753Z,6.24
2022-12-29T10:56:35.081Z,6.39
2022-12-29T10:59:13.448Z,6.35
2022-12-29T11:01:54.728Z,6.13
2022-12-29T11:04:38.174Z,5.96
2022-12-29T11:07:13.208Z,5.88
2022-12-29T11:09:46.934Z,5.86
2022-12-29T11:12:27.037Z,5.94
2022-12-29T11:15:23.550Z,5.97
2022-12-29T11:18:00.690Z,6.00
2022-12-29T11:20:38.858Z,6.10
2022-12-29T11:23:24.229Z,6.20
2022-12-29T11:26:09.527Z,6.24
2022-12-29T11:28:39.299Z,6.14
2022-12-29T11:31:11.716Z,6.04
2022-12-29T11:33:44.308Z,5.96
2022-12-29T11:36:19.158Z,5.92
2022-12-29T11:38:51.536Z,5.83
2022-12-29T11:41:26.598Z,5.75
2022-12-29T11:43:56.092Z,5.65
2022-12-29T11:46:33.800Z,5.58
2022-12-29T11:49:03.396Z,5.54
2022-12-29T11:51:55.128Z,5.52
2022-12-29T11:54:28.046Z,5.50
2022-12-29T11:57:06.373Z,5.57
2022-12-29T11:59:42.512Z,5.70
2022-12-29T12:02:29.136Z,5.75
2022-12-29T12:05:04.197Z,5.76
2022-12-29T12:07:42.723Z,5.75
2022-12-29T12:10:23.725Z,5.76
2022-12-29T12:13:04.769Z,5.75
2022-12-29T12:15:45.909Z,5.74
2022-12-29T12:18:21.209Z,5.75
2022-12-29T12:20:57.662Z,5.75
2022-12-29T12:24:11.163Z,5.73
2022-12-29T12:27:02.940Z,5.72
2022-12-29T12:29:55.255Z,5.72
2022-12-29T12:32:29.507Z,5.72
2022-12-29T12:35:00.936Z,5.72
2022-12-29T12:37:53.505Z,5.72
2022-12-29T12:40:53.347Z,5.76
2022-12-29T12:43:47.268Z,5.83
2022-12-29T12:46:34.055Z,5.86
2022-12-29T12:49:28.734Z,5.92
2022-12-29T12:52:06.996Z,5.94
2022-12-29T12:54:52.411Z,5.89
2022-12-29T12:57:40.041Z,5.85
2022-12-29T13:00:13.930Z,5.95
2022-12-29T13:03:02.156Z,6.02
2022-12-29T13:05:49.424Z,6.05
2022-12-29T13:08:51.279Z,6.15
2022-12-29T13:11:27.846Z,6.25
2022-12-29T13:14:18.358Z,6.31
2022-12-29T13:16:55.155Z,6.40
2022-12-29T13:19:32.575Z,6.41
2022-12-29T13:22:10.824Z,6.37
2022-12-29T13:24:56.219Z,6.36
2022-12-29T13:27:37.530Z,6.33
2022-12-29T13:30:18.020Z,6.28
2022-12-29T13:32:56.679Z,6.24
2022-12-29T13:35:53.604Z,6.19
2022-12-29T13:38:32.086Z,6.11
2022-12-29T13:41:06.005Z,6.06
2022-12-29T13:43:36.769Z,6.09
2022-12-29T13:46:24.211Z,6.17
2022-12-29T13:48:55.731Z,6.25
2022-12-29T13:51:28.995Z,6.27
2022-12-29T13:54:06.095Z,6.20
2022-12-29T13:56:44.628Z,6.22
2022-12-29T13:59:22.032Z,6.22
2022-12-29T14:01:59.795Z,6.19
2022-12-29T14:04:34.327Z,6.18
2022-12-29T14:07:05.260Z,6.16
2022-12-29T14:09:49.569Z,6.18
2022-12-29T14:12:35.322Z,6.18
2022-12-29T14:15:31.887Z,6.16
2022-12-29T14:18:20.494Z,6.16
2022-12-29T14:20:56.657Z,6.12
2022-12-29T14:23:39.155Z,6.11
2022-12-29T14:26:19.347Z,6.11
2022-12-29T14:28:48.327Z,6.10
2022-12-29T14:31:42.398Z,6.06
2022-12-29T14:34:51.788Z,6.04
2022-12-29T14:37:28.030Z,6.02
2022-12-29T14:40:19.968Z,5.99
2022-12-29T14:42:49.795Z,5.92
2022-12-29T14:45:29.795Z,5.88
2022-12-29T14:48:00.578Z,5.82
2022-12-29T14:50:41.323Z,5.74
2022-12-29T14:53:44.970Z,5.69
2022-12-29T14:56:14.669Z,5.66
2022-12-29T14:59:11.930Z,5.62
2022-12-29T15:01:45.734Z,5.57
2022-12-29T15:04:28.864Z,5.51
2022-12-29T15:07:06.800Z,5.46
2022-12-29T15:09:40.077Z,5.43
2022-12-29T15:12:23.572Z,5.41
2022-12-29T15:14:54.551Z,5.39
2022-12-29T15:17:28.334Z,5.38
2022-12-29T15:19:57.917Z,5.36
2022-12-29T15:22:29.012Z,5.35
2022-12-29T15:24:58.926Z,5.35
2022-12-29T15:27:29.109Z,5.33
2022-12-29T15:30:00.953Z,5.29
2022-12-29T15:32:35.159Z,5.25
2022-12-29T15:35:25.608Z,5.17
2022-12-29T15:37:55.638Z,5.13
2022-12-29T15:40:32.180Z,5.08
2022-12-29T15:43:35.302Z,5.01
2022-12-29T15:46:06.836Z,4.96
2022-12-29T15:48:38.049Z,4.89
2022-12-29T15:51:14.009Z,4.86
2022-12-29T15:53:53.444Z,4.78
2022-12-29T15:56:29.044Z,4.75
2022-12-29T15:58:57.558Z,4.69
2022-12-29T16:01:29.946Z,4.63
2022-12-29T16:03:59.894Z,4.60
2022-12-29T16:06:33.563Z,4.55
2022-12-29T16:09:06.305Z,4.55
2022-12-29T16:11:38.081Z,4.54
2022-12-29T16:14:21.942Z,4.50
2022-12-29T16:16:53.195Z,4.46
2022-12-29T16:19:30.015Z,4.42
2022-12-29T16:22:04.127Z,4.41
2022-12-29T16:24:35.206Z,4.38
2022-12-29T16:27:10.532Z,4.37
2022-12-29T16:29:39.430Z,4.34
2022-12-29T16:32:38.735Z,4.33
2022-12-29T16:35:18.787Z,4.35
2022-12-29T16:37:47.663Z,4.33
2022-12-29T16:40:29.476Z,4.32
2022-12-29T16:42:59.424Z,4.31
2022-12-29T16:46:09.835Z,4.28
2022-12-29T16:48:49.016Z,4.28
2022-12-29T16:51:19.742Z,4.30
2022-12-29T16:53:52.774Z,4.30
2022-12-29T16:56:28.165Z,4.26
2022-12-29T16:59:06.139Z,4.25
2022-12-29T17:01:38.852Z,4.25
2022-12-29T17:04:11.289Z,4.27
2022-12-29T17:06:40.159Z,4.22
2022-12-29T17:09:20.193Z,4.21
2022-12-29T17:12:08.574Z,4.20
2022-12-29T17:14:45.919Z,4.23
2022-12-29T17:17:25.663Z,4.23
2022-12-29T17:20:02.623Z,4.22
2022-12-29T17:22:31.602Z,4.21
2022-12-29T17:25:02.803Z,4.19
2022-12-29T17:27:44.539Z,4.18
2022-12-29T17:30:19.773Z,4.13
2022-12-29T17:32:56.072Z,4.08
2022-12-29T17:35:25.493Z,4.08
2022-12-29T17:37:56.267Z,4.02
2022-12-29T17:40:31.041Z,4.02
2022-12-29T17:43:01.636Z,3.98
2022-12-29T17:45:32.085Z,3.93
2022-12-29T17:48:02.067Z,3.90
2022-12-29T17:50:33.948Z,3.88
2022-12-29T17:53:07.276Z,3.87
2022-12-29T17:55:38.924Z,3.85
2022-12-29T17:58:20.734Z,3.85
2022-12-29T18:01:00.175Z,3.85
2022-12-29T18:03:31.588Z,3.81
2022-12-29T18:06:00.442Z,3.81
2022-12-29T18:08:31.033Z,3.81
2022-12-29T18:11:04.677Z,3.82
2022-12-29T18:13:46.090Z,3.86
2022-12-29T18:16:15.605Z,3.89
2022-12-29T18:18:43.856Z,3.89
2022-12-29T18:21:18.441Z,3.92
2022-12-29T18:23:47.282Z,3.91
2022-12-29T18:26:23.978Z,3.92
2022-12-29T18:28:57.502Z,3.95
2022-12-29T18:31:27.522Z,3.93
2022-12-29T18:33:58.080Z,3.94
2022-12-29T18:36:29.200Z,3.93
2022-12-29T18:38:59.995Z,3.90
2022-12-29T18:41:30.997Z,3.91
2022-12-29T18:44:01.692Z,3.91
2022-12-29T18:46:33.207Z,3.92
2022-12-29T18:49:02.069Z,3.91
2022-12-29T18:51:30.342Z,3.88
2022-12-29T18:54:03.129Z,3.92
2022-12-29T18:56:32.701Z,3.91
2022-12-29T18:59:04.943Z,3.94
2022-12-29T19:01:33.222Z,3.92
2022-12-29T19:04:01.841Z,3.90
2022-12-29T19:06:30.454Z,3.93
2022-12-29T19:09:01.422Z,3.92
2022-12-29T19:11:29.570Z,3.97
2022-12-29T19:13:58.099Z,3.98
2022-12-29T19:16:29.209Z,4.01
2022-12-29T19:19:09.426Z,4.04
2022-12-29T19:21:40.457Z,4.12
2022-12-29T19:24:09.346Z,4.14
2022-12-29T19:26:39.924Z,4.19
2022-12-29T19:29:15.323Z,4.24
2022-12-29T19:31:46.167Z,4.29
2022-12-29T19:34:16.263Z,4.33
2022-12-29T19:36:45.698Z,4.35
2022-12-29T19:39:24.216Z,4.37
2022-12-29T19:41:54.068Z,4.41
2022-12-29T19:44:26.903Z,4.43
2022-12-29T19:47:00.435Z,4.44
2022-12-29T19:49:29.073Z,4.47
2022-12-29T19:51:59.791Z,4.51
2022-12-29T19:54:28.160Z,4.53
2022-12-29T19:56:59.604Z,4.56
2022-12-29T19:59:27.959Z,4.56
2022-12-29T20:01:58.013Z,4.56
2022-12-29T20:04:26.233Z,4.57
2022-12-29T20:06:54.587Z,4.56
2022-12-29T20:09:24.893Z,4.52
2022-12-29T20:11:55.631Z,4.54
2022-12-29T20:14:24.200Z,4.54
2022-12-29T20:17:10.003Z,4.56
2022-12-29T20:20:02.644Z,4.60
2022-12-29T20:22:30.880Z,4.66
2022-12-29T20:25:42.992Z,4.70
2022-12-29T20:27:56.121Z,4.74
2022-12-29T20:30:25.245Z,4.75
2022-12-29T20:32:53.435Z,4.79
2022-12-29T20:35:23.762Z,4.83
2022-12-29T20:37:52.740Z,4.83
2022-12-29T20:40:23.852Z,4.86
2022-12-29T20:43:02.738Z,4.89
2022-12-29T20:45:30.904Z,4.93
2022-12-29T20:47:58.978Z,4.97
2022-12-29T20:50:28.516Z,4.98
2022-12-29T20:52:56.881Z,5.00
2022-12-29T20:55:25.369Z,5.01
2022-12-29T20:58:23.282Z,5.01
2022-12-29T21:00:45.168Z,5.03
2022-12-29T21:03:19.689Z,5.02
2022-12-29T21:05:49.575Z,5.06
2022-12-29T21:08:18.141Z,5.04
2022-12-29T21:10:47.620Z,5.05
2022-12-29T21:13:16.847Z,5.06
2022-12-29T21:15:46.461Z,5.07
2022-12-29T21:18:16.675Z,5.06
2022-12-29T21:20:59.385Z,5.04
2022-12-29T21:23:29.989Z,5.04
2022-12-29T21:26:07.020Z,5.04
2022-12-29T21:28:39.576Z,5.06
2022-12-29T21:31:14.891Z,5.04
2022-12-29T21:33:43.741Z,5.08
2022-12-29T21:36:15.329Z,5.09
2022-12-29T21:38:44.827Z,5.12
2022-12-29T21:41:15.914Z,5.14
2022-12-29T21:44:03.958Z,5.16
2022-12-29T21:46:32.585Z,5.17
2022-12-29T21:49:01.335Z,5.18
2022-12-29T21:51:52.406Z,5.19
2022-12-29T21:54:40.937Z,5.18
2022-12-29T21:57:17.965Z,5.19
2022-12-29T22:00:06.723Z,5.19
2022-12-29T22:02:56.679Z,5.20
2022-12-29T22:05:42.893Z,5.19
2022-12-29T22:08:33.306Z,5.16
2022-12-29T22:11:18.886Z,5.15
2022-12-29T22:13:47.570Z,5.15
2022-12-29T22:16:18.762Z,5.10
2022-12-29T22:18:48.208Z,5.07
2022-12-29T22:21:17.046Z,5.09
2022-12-29T22:23:50.387Z,5.11
2022-12-29T22:26:19.437Z,5.16
2022-12-29T22:31:40.519Z,5.25
2022-12-29T22:34:09.067Z,5.29
2022-12-29T22:36:43.166Z,5.33
2022-12-29T22:39:14.807Z,5.38
2022-12-29T22:41:43.541Z,5.42
2022-12-29T22:44:12.451Z,5.46
2022-12-29T22:46:42.470Z,5.49
2022-12-29T22:49:12.196Z,5.55
2022-12-29T22:51:45.041Z,5.61
2022-12-29T22:54:22.081Z,5.66
2022-12-29T22:59:53.808Z,5.78
2022-12-29T23:02:41.321Z,5.86
2022-12-29T23:05:34.848Z,5.97
2022-12-29T23:08:47.461Z,6.02
2022-12-29T23:11:21.758Z,6.12
2022-12-29T23:13:50.368Z,6.19
2022-12-29T23:16:19.206Z,6.27
2022-12-29T23:19:12.014Z,6.35
2022-12-29T23:22:05.228Z,6.42
2022-12-29T23:24:36.507Z,6.51
2022-12-29T23:27:10.085Z,6.58
2022-12-29T23:29:41.355Z,6.66
2022-12-29T23:32:10.119Z,6.71
2022-12-29T23:34:45.122Z,6.78
2022-12-29T23:37:14.500Z,6.83
2022-12-29T23:39:43.060Z,6.89
2022-12-29T23:42:15.091Z,6.93
2022-12-29T23:44:54.377Z,6.96
2022-12-29T23:47:31.894Z,6.99
2022-12-29T23:50:00.771Z,6.98
2022-12-29T23:52:29.108Z,7.04
2022-12-29T23:55:03.062Z,7.08
2022-12-29T23:57:52.908Z,7.14
